Time;durP1;ratioP1;P1;durP2;ratioP2;P2;SDS_P1;SDS_P2;PMS_P1;PMS_P2;Temp;Humidity;BMP_temperature;BMP_pressure;BME280_temperature;BME280_humidity;BME280_pressure;Samples;Min_cycle;Max_cycle;Signal;HPM_P1;HPM_P2
2023/05/21 00:00:02;;;;;;;15.02;13.60;;;;;;;;;;5080628;28;20231;-53
2023/05/21 00:02:29;;;;;;;14.73;13.32;;;;;;;;;;5069281;28;20679;-52
2023/05/21 00:04:55;;;;;;;13.65;12.27;;;;;;;;;;5077623;28;20238;-52
2023/05/21 00:07:22;;;;;;;14.48;12.98;;;;;;;;;;5065204;28;20251;-52
2023/05/21 00:09:48;;;;;;;14.02;12.73;;;;;;;;;;5077771;28;20253;-53
2023/05/21 00:12:16;;;;;;;14.43;13.02;;;;;;;;;;5082633;28;20226;-53
2023/05/21 00:14:42;;;;;;;14.48;11.63;;;;;;;;;;5082426;28;20240;-53
2023/05/21 00:17:09;;;;;;;15.45;13.73;;;;;;;;;;5087495;28;20235;-53
2023/05/21 00:19:35;;;;;;;15.80;14.00;;;;;;;;;;5086075;28;20235;-52
2023/05/21 00:22:02;;;;;;;15.27;13.55;;;;;;;;;;5078647;28;20246;-52
2023/05/21 00:24:29;;;;;;;14.27;12.88;;;;;;;;;;5082331;28;20234;-52
2023/05/21 00:26:55;;;;;;;13.38;12.02;;;;;;;;;;5074026;28;20355;-52
2023/05/21 00:29:25;;;;;;;13.60;12.27;;;;;;;;;;5080298;28;20700;-53
2023/05/21 00:31:51;;;;;;;13.45;11.95;;;;;;;;;;5075680;28;20238;-52
2023/05/21 00:34:18;;;;;;;14.57;13.02;;;;;;;;;;5075455;28;20708;-52
2023/05/21 00:36:44;;;;;;;13.40;12.20;;;;;;;;;;5076264;28;20891;-53
2023/05/21 00:39:11;;;;;;;13.85;12.43;;;;;;;;;;5078644;28;20222;-52
2023/05/21 00:41:38;;;;;;;14.88;13.38;;;;;;;;;;5074850;28;20222;-52
2023/05/21 00:44:05;;;;;;;13.77;12.48;;;;;;;;;;5083742;28;20844;-53
2023/05/21 00:46:33;;;;;;;14.55;13.20;;;;;;;;;;5080769;28;20288;-52
2023/05/21 00:49:00;;;;;;;15.10;13.57;;;;;;;;;;5083426;28;20232;-53
2023/05/21 00:51:29;;;;;;;15.50;14.00;;;;;;;;;;5087033;28;20295;-52
2023/05/21 00:53:56;;;;;;;15.93;14.38;;;;;;;;;;5089169;28;20314;-52
2023/05/21 00:56:23;;;;;;;15.27;13.68;;;;;;;;;;5089974;28;20222;-52
2023/05/21 00:58:50;;;;;;;14.65;13.25;;;;;;;;;;5088663;28;20249;-53
2023/05/21 01:01:18;;;;;;;15.63;13.85;;;;;;;;;;5087468;28;20310;-55
2023/05/21 01:03:47;;;;;;;19.45;14.25;;;;;;;;;;5082588;28;20226;-52
2023/05/21 01:06:14;;;;;;;16.20;14.52;;;;;;;;;;5075520;28;20694;-52
2023/05/21 01:08:41;;;;;;;15.63;14.10;;;;;;;;;;5077116;28;20241;-52
2023/05/21 01:11:09;;;;;;;14.35;13.05;;;;;;;;;;5074145;28;20329;-53
2023/05/21 01:13:37;;;;;;;17.65;13.73;;;;;;;;;;5079726;28;20246;-51
2023/05/21 01:16:05;;;;;;;14.48;13.18;;;;;;;;;;5081556;28;20236;-52
2023/05/21 01:18:33;;;;;;;16.92;14.30;;;;;;;;;;5082878;28;20335;-53
2023/05/21 01:21:01;;;;;;;16.27;14.75;;;;;;;;;;5070593;28;20230;-52
2023/05/21 01:23:29;;;;;;;14.20;12.82;;;;;;;;;;5074127;28;20245;-54
2023/05/21 01:25:55;;;;;;;14.88;13.35;;;;;;;;;;5069054;28;20854;-51
2023/05/21 01:28:22;;;;;;;15.55;13.98;;;;;;;;;;5075182;28;20231;-53
2023/05/21 01:30:48;;;;;;;15.18;13.77;;;;;;;;;;5080072;28;20236;-52
2023/05/21 01:33:17;;;;;;;14.98;13.55;;;;;;;;;;5073942;28;20225;-52
2023/05/21 01:35:45;;;;;;;15.82;14.27;;;;;;;;;;5074527;28;20230;-52
2023/05/21 01:38:12;;;;;;;16.40;14.80;;;;;;;;;;5079668;28;20637;-52
2023/05/21 01:40:44;;;;;;;17.83;15.98;;;;;;;;;;5084224;28;20329;-51
2023/05/21 01:43:11;;;;;;;16.90;14.50;;;;;;;;;;5068884;28;20756;-52
2023/05/21 01:45:39;;;;;;;15.85;13.93;;;;;;;;;;5073813;28;20250;-52
2023/05/21 01:48:07;;;;;;;15.30;13.73;;;;;;;;;;5073322;28;21028;-54
2023/05/21 01:50:34;;;;;;;16.27;14.63;;;;;;;;;;5067191;28;20339;-52
2023/05/21 01:53:02;;;;;;;17.67;15.82;;;;;;;;;;5072138;28;20242;-52
2023/05/21 01:55:30;;;;;;;16.75;14.88;;;;;;;;;;5078852;28;20239;-52
2023/05/21 01:57:58;;;;;;;21.77;16.42;;;;;;;;;;5078349;28;20703;-53
2023/05/21 02:00:28;;;;;;;15.90;14.23;;;;;;;;;;5066197;28;20238;-53
2023/05/21 02:02:55;;;;;;;16.52;14.75;;;;;;;;;;5066786;28;20230;-52
2023/05/21 02:05:21;;;;;;;15.73;14.18;;;;;;;;;;5071907;28;20718;-51
2023/05/21 02:07:48;;;;;;;15.85;14.13;;;;;;;;;;5073846;28;20857;-53
2023/05/21 02:10:15;;;;;;;18.15;16.33;;;;;;;;;;5077226;28;20230;-53
2023/05/21 02:12:42;;;;;;;15.57;14.05;;;;;;;;;;5075759;28;20230;-51
2023/05/21 02:15:10;;;;;;;15.48;14.07;;;;;;;;;;5079045;28;20223;-52
2023/05/21 02:17:37;;;;;;;15.68;14.25;;;;;;;;;;5076191;28;20226;-51
2023/05/21 02:20:10;;;;;;;15.95;14.35;;;;;;;;;;5085191;28;20234;-54
2023/05/21 02:22:37;;;;;;;15.63;13.95;;;;;;;;;;5076355;28;20241;-52
2023/05/21 02:25:04;;;;;;;13.55;12.25;;;;;;;;;;5082817;28;20223;-53
2023/05/21 02:27:31;;;;;;;19.25;17.45;;;;;;;;;;5085498;28;20230;-52
2023/05/21 02:29:57;;;;;;;17.10;15.30;;;;;;;;;;5083893;28;20281;-52
2023/05/21 02:32:25;;;;;;;18.80;15.60;;;;;;;;;;5081767;28;20295;-52
2023/05/21 02:34:52;;;;;;;16.17;14.55;;;;;;;;;;5081458;28;20284;-53
2023/05/21 02:37:19;;;;;;;17.23;15.52;;;;;;;;;;5076412;28;20262;-52
2023/05/21 02:39:45;;;;;;;17.98;16.27;;;;;;;;;;5084386;28;20284;-53
2023/05/21 02:42:12;;;;;;;19.48;15.30;;;;;;;;;;5084231;28;20231;-51
2023/05/21 02:44:39;;;;;;;18.50;16.55;;;;;;;;;;5079244;28;20238;-53
2023/05/21 02:47:07;;;;;;;19.38;17.45;;;;;;;;;;5086450;28;20243;-52
2023/05/21 02:49:35;;;;;;;21.23;18.38;;;;;;;;;;5091051;28;20271;-53
2023/05/21 02:52:01;;;;;;;18.05;16.27;;;;;;;;;;5083633;28;20349;-53
2023/05/21 02:54:28;;;;;;;17.63;15.98;;;;;;;;;;5081862;28;20291;-53
2023/05/21 02:56:54;;;;;;;20.35;18.13;;;;;;;;;;5085127;28;20584;-51
2023/05/21 02:59:21;;;;;;;19.92;18.00;;;;;;;;;;5085332;28;20226;-52
2023/05/21 03:01:47;;;;;;;18.52;16.67;;;;;;;;;;5079380;28;20250;-53
2023/05/21 03:04:16;;;;;;;17.90;16.30;;;;;;;;;;5080069;28;20372;-53
2023/05/21 03:06:45;;;;;;;20.20;18.17;;;;;;;;;;5089510;28;20470;-52
2023/05/21 03:09:12;;;;;;;21.38;19.15;;;;;;;;;;5080717;28;21107;-52
2023/05/21 03:11:38;;;;;;;21.45;17.63;;;;;;;;;;5084708;28;20241;-54
2023/05/21 03:14:05;;;;;;;20.77;18.60;;;;;;;;;;5084547;28;20227;-52
2023/05/21 03:16:34;;;;;;;19.40;17.35;;;;;;;;;;5082397;28;20241;-52
2023/05/21 03:19:01;;;;;;;19.75;17.73;;;;;;;;;;5078671;28;20276;-53
2023/05/21 03:21:28;;;;;;;21.67;19.48;;;;;;;;;;5083287;28;21821;-52
2023/05/21 03:23:57;;;;;;;21.83;19.70;;;;;;;;;;5085056;28;20239;-52
2023/05/21 03:26:26;;;;;;;23.08;20.80;;;;;;;;;;5086920;28;20299;-52
2023/05/21 03:28:52;;;;;;;22.08;19.42;;;;;;;;;;5084629;28;20253;-52
2023/05/21 03:31:19;;;;;;;21.90;19.70;;;;;;;;;;5085270;28;20314;-53
2023/05/21 03:33:46;;;;;;;22.08;19.77;;;;;;;;;;5091450;28;20257;-53
2023/05/21 03:36:13;;;;;;;23.30;21.05;;;;;;;;;;5085722;28;20256;-52
2023/05/21 03:38:39;;;;;;;20.80;18.85;;;;;;;;;;5086827;28;20248;-52
2023/05/21 03:41:08;;;;;;;20.20;18.30;;;;;;;;;;5083040;28;20276;-52
2023/05/21 03:43:35;;;;;;;23.17;20.67;;;;;;;;;;5077959;28;20310;-52
2023/05/21 03:46:01;;;;;;;20.13;18.13;;;;;;;;;;5078178;28;20231;-52
2023/05/21 03:48:28;;;;;;;22.42;20.13;;;;;;;;;;5082628;28;20249;-51
2023/05/21 03:50:54;;;;;;;22.17;19.90;;;;;;;;;;5086891;28;20272;-53
2023/05/21 03:53:21;;;;;;;23.70;19.50;;;;;;;;;;5072289;28;20283;-52
2023/05/21 03:55:53;;;;;;;21.98;19.90;;;;;;;;;;5085798;28;20228;-52
2023/05/21 03:58:21;;;;;;;21.00;19.00;;;;;;;;;;5083985;28;20226;-52
2023/05/21 04:00:48;;;;;;;22.52;20.27;;;;;;;;;;5081984;28;20238;-53
2023/05/21 04:03:15;;;;;;;21.55;19.45;;;;;;;;;;5077389;28;20230;-53
2023/05/21 04:05:42;;;;;;;22.13;19.92;;;;;;;;;;5088674;28;20237;-52
2023/05/21 04:08:08;;;;;;;22.55;20.02;;;;;;;;;;5089348;28;20680;-53
2023/05/21 04:10:35;;;;;;;23.75;21.42;;;;;;;;;;5092995;28;20226;-53
2023/05/21 04:13:01;;;;;;;23.08;20.75;;;;;;;;;;5093134;28;20291;-53
2023/05/21 04:15:29;;;;;;;22.48;20.27;;;;;;;;;;5088122;28;20631;-53
2023/05/21 04:17:57;;;;;;;21.65;19.58;;;;;;;;;;5094043;28;20232;-52
2023/05/21 04:20:23;;;;;;;20.38;18.17;;;;;;;;;;5093586;28;20286;-54
2023/05/21 04:22:50;;;;;;;22.40;20.10;;;;;;;;;;5082003;28;20688;-53
2023/05/21 04:25:19;;;;;;;21.17;19.08;;;;;;;;;;5082273;28;20716;-53
2023/05/21 04:27:46;;;;;;;21.92;19.85;;;;;;;;;;5083170;28;20231;-53
2023/05/21 04:30:13;;;;;;;25.77;23.10;;;;;;;;;;5079715;28;20238;-53
2023/05/21 04:32:44;;;;;;;21.30;19.00;;;;;;;;;;5081204;28;20748;-53
2023/05/21 04:35:11;;;;;;;21.23;19.25;;;;;;;;;;5083575;28;20770;-52
2023/05/21 04:37:40;;;;;;;19.65;17.63;;;;;;;;;;5082905;28;20318;-53
2023/05/21 04:40:08;;;;;;;20.73;18.27;;;;;;;;;;5083683;28;20228;-53
2023/05/21 04:42:35;;;;;;;21.55;19.42;;;;;;;;;;5078328;28;20245;-52
2023/05/21 04:45:01;;;;;;;20.40;18.48;;;;;;;;;;5081430;28;20765;-52
2023/05/21 04:47:29;;;;;;;20.65;18.48;;;;;;;;;;5081443;28;20384;-51
2023/05/21 04:49:58;;;;;;;22.58;20.42;;;;;;;;;;5078887;28;20246;-51
2023/05/21 04:52:25;;;;;;;22.73;20.45;;;;;;;;;;5077762;28;20264;-52
2023/05/21 04:54:52;;;;;;;22.70;20.30;;;;;;;;;;5078724;28;20264;-54
2023/05/21 04:57:20;;;;;;;19.77;17.67;;;;;;;;;;5078840;28;20610;-54
2023/05/21 04:59:48;;;;;;;21.17;17.75;;;;;;;;;;5082017;28;20708;-51
2023/05/21 05:02:14;;;;;;;20.10;18.10;;;;;;;;;;5079156;28;20711;-53
2023/05/21 05:04:42;;;;;;;22.40;20.05;;;;;;;;;;5082104;28;20226;-51
2023/05/21 05:07:10;;;;;;;20.38;18.42;;;;;;;;;;5076461;28;20594;-53
2023/05/21 05:09:37;;;;;;;22.23;20.25;;;;;;;;;;5075943;28;20244;-53
2023/05/21 05:12:04;;;;;;;20.85;18.65;;;;;;;;;;5077171;28;20304;-53
2023/05/21 05:14:31;;;;;;;20.83;18.80;;;;;;;;;;5081694;28;20249;-53
2023/05/21 05:16:59;;;;;;;20.20;18.20;;;;;;;;;;5085619;28;20222;-52
2023/05/21 05:19:26;;;;;;;21.20;19.13;;;;;;;;;;5086153;28;20226;-53
2023/05/21 05:21:52;;;;;;;20.80;18.83;;;;;;;;;;5084385;28;20288;-53
2023/05/21 05:24:20;;;;;;;22.80;20.38;;;;;;;;;;5087576;28;20769;-56
2023/05/21 05:26:47;;;;;;;21.92;19.75;;;;;;;;;;5089760;28;20234;-57
2023/05/21 05:29:14;;;;;;;20.95;18.92;;;;;;;;;;5086724;28;20231;-53
2023/05/21 05:31:40;;;;;;;22.63;20.40;;;;;;;;;;5091287;28;20254;-52
2023/05/21 05:34:07;;;;;;;23.67;21.38;;;;;;;;;;5091337;28;20231;-52
2023/05/21 05:36:33;;;;;;;20.42;18.63;;;;;;;;;;5086762;28;20231;-52
2023/05/21 05:39:00;;;;;;;20.75;18.52;;;;;;;;;;5081747;28;20234;-52
2023/05/21 05:41:28;;;;;;;23.45;20.77;;;;;;;;;;5076629;28;20253;-53
2023/05/21 05:43:55;;;;;;;22.40;20.10;;;;;;;;;;5080090;28;20227;-52
2023/05/21 05:46:21;;;;;;;20.45;18.10;;;;;;;;;;5080905;28;20313;-51
2023/05/21 05:48:48;;;;;;;22.17;20.13;;;;;;;;;;5079556;28;20222;-53
2023/05/21 05:51:15;;;;;;;22.75;20.35;;;;;;;;;;5071465;28;20257;-52
2023/05/21 05:53:42;;;;;;;21.65;19.65;;;;;;;;;;5080147;28;20234;-52
2023/05/21 05:56:09;;;;;;;22.25;20.20;;;;;;;;;;5081573;28;20238;-52
2023/05/21 05:58:37;;;;;;;22.10;19.80;;;;;;;;;;5079320;28;20226;-52
2023/05/21 06:01:04;;;;;;;22.45;20.25;;;;;;;;;;5073915;28;20751;-54
2023/05/21 06:03:30;;;;;;;22.10;18.65;;;;;;;;;;5074277;28;20304;-52
2023/05/21 06:05:57;;;;;;;20.92;18.83;;;;;;;;;;5076779;28;20238;-51
2023/05/21 06:08:24;;;;;;;20.52;18.63;;;;;;;;;;5080040;28;20660;-52
2023/05/21 06:10:50;;;;;;;19.17;17.27;;;;;;;;;;5078069;28;20308;-54
2023/05/21 06:13:17;;;;;;;18.85;17.20;;;;;;;;;;5077615;28;20239;-51
2023/05/21 06:15:45;;;;;;;20.20;18.23;;;;;;;;;;5078604;28;20226;-52
2023/05/21 06:18:12;;;;;;;19.38;17.60;;;;;;;;;;5080383;28;20943;-54
2023/05/21 06:20:39;;;;;;;21.25;18.63;;;;;;;;;;5080665;28;20249;-55
2023/05/21 06:23:07;;;;;;;19.73;17.85;;;;;;;;;;5076988;28;20260;-52
2023/05/21 06:25:34;;;;;;;19.30;17.55;;;;;;;;;;5078651;28;20276;-52
2023/05/21 06:28:00;;;;;;;19.30;17.52;;;;;;;;;;5072718;28;20230;-53
2023/05/21 06:30:27;;;;;;;19.83;17.88;;;;;;;;;;5078274;28;20238;-52
2023/05/21 06:32:56;;;;;;;19.70;17.73;;;;;;;;;;5074661;28;20915;-52
2023/05/21 06:35:22;;;;;;;18.02;16.35;;;;;;;;;;5080271;28;20227;-52
2023/05/21 06:37:49;;;;;;;19.00;17.02;;;;;;;;;;5080111;28;20231;-52
2023/05/21 06:40:15;;;;;;;17.55;15.95;;;;;;;;;;5078264;28;20783;-52
2023/05/21 06:42:42;;;;;;;20.30;18.30;;;;;;;;;;5079425;28;20645;-53
2023/05/21 06:45:09;;;;;;;18.15;16.58;;;;;;;;;;5079450;28;20313;-53
2023/05/21 06:47:36;;;;;;;18.60;16.63;;;;;;;;;;5082442;28;20326;-51
2023/05/21 06:50:04;;;;;;;17.85;16.25;;;;;;;;;;5080851;28;20238;-52
2023/05/21 06:52:31;;;;;;;18.90;17.08;;;;;;;;;;5077138;28;20235;-52
2023/05/21 06:54:57;;;;;;;19.23;17.35;;;;;;;;;;5081397;28;20630;-52
2023/05/21 06:57:24;;;;;;;17.77;16.10;;;;;;;;;;5080048;28;20333;-51
2023/05/21 06:59:51;;;;;;;18.58;16.65;;;;;;;;;;5075989;28;20322;-52
2023/05/21 07:02:17;;;;;;;20.50;18.38;;;;;;;;;;5077104;28;20235;-51
2023/05/21 07:04:44;;;;;;;18.05;16.35;;;;;;;;;;5083760;28;20304;-52
2023/05/21 07:07:12;;;;;;;18.77;17.13;;;;;;;;;;5080429;28;21894;-53
2023/05/21 07:09:39;;;;;;;19.58;17.70;;;;;;;;;;5084959;28;20735;-53
2023/05/21 07:12:06;;;;;;;18.55;16.85;;;;;;;;;;5083910;28;20231;-52
2023/05/21 07:14:32;;;;;;;18.27;15.85;;;;;;;;;;5085070;28;20287;-52
2023/05/21 07:16:59;;;;;;;19.15;17.33;;;;;;;;;;5079879;28;20739;-52
2023/05/21 07:19:25;;;;;;;18.33;16.50;;;;;;;;;;5083633;28;20242;-53
2023/05/21 07:21:52;;;;;;;18.85;16.75;;;;;;;;;;5082928;28;20309;-52
2023/05/21 07:24:20;;;;;;;20.10;16.63;;;;;;;;;;5081119;28;20280;-53
2023/05/21 07:26:47;;;;;;;16.38;14.95;;;;;;;;;;5081522;28;20235;-50
2023/05/21 07:29:13;;;;;;;16.40;14.80;;;;;;;;;;5079699;28;20235;-53
2023/05/21 07:31:40;;;;;;;17.17;15.55;;;;;;;;;;5074471;28;20230;-51
2023/05/21 07:34:06;;;;;;;16.88;15.18;;;;;;;;;;5072952;28;20235;-52
2023/05/21 07:36:33;;;;;;;15.90;14.45;;;;;;;;;;5070974;28;20235;-52
2023/05/21 07:39:00;;;;;;;15.18;13.60;;;;;;;;;;5076241;28;20235;-52
2023/05/21 07:41:28;;;;;;;15.68;14.15;;;;;;;;;;5078995;28;20727;-53
2023/05/21 07:43:54;;;;;;;22.38;14.18;;;;;;;;;;5082388;28;20294;-53
2023/05/21 07:46:21;;;;;;;15.23;13.73;;;;;;;;;;5085543;28;20231;-53
2023/05/21 07:48:48;;;;;;;16.38;14.57;;;;;;;;;;5082548;28;20266;-52
2023/05/21 07:51:15;;;;;;;17.13;15.40;;;;;;;;;;5081796;28;20233;-52
2023/05/21 07:53:42;;;;;;;14.48;13.07;;;;;;;;;;5073042;28;20248;-58
2023/05/21 07:56:08;;;;;;;14.60;13.25;;;;;;;;;;5082321;28;20284;-53
2023/05/21 07:58:36;;;;;;;15.18;13.68;;;;;;;;;;5082597;28;20243;-52
2023/05/21 08:01:02;;;;;;;13.63;12.27;;;;;;;;;;5080806;28;20256;-51
2023/05/21 08:03:29;;;;;;;14.02;12.70;;;;;;;;;;5079266;28;20319;-51
2023/05/21 08:05:56;;;;;;;14.40;13.10;;;;;;;;;;5080806;28;20905;-52
2023/05/21 08:08:22;;;;;;;13.68;12.40;;;;;;;;;;5079335;28;20326;-53
2023/05/21 08:10:49;;;;;;;15.40;13.45;;;;;;;;;;5074772;28;20245;-52
2023/05/21 08:13:16;;;;;;;14.05;12.85;;;;;;;;;;5074379;28;20241;-52
2023/05/21 08:15:44;;;;;;;15.32;12.65;;;;;;;;;;5080671;28;20240;-52
2023/05/21 08:18:10;;;;;;;12.90;11.70;;;;;;;;;;5069926;28;20227;-52
2023/05/21 08:20:36;;;;;;;12.88;11.77;;;;;;;;;;5082184;28;20227;-52
2023/05/21 08:23:03;;;;;;;13.63;12.43;;;;;;;;;;5077094;28;20230;-53
2023/05/21 08:25:30;;;;;;;12.80;11.32;;;;;;;;;;5072456;28;21877;-52
2023/05/21 08:27:56;;;;;;;16.30;13.13;;;;;;;;;;5071532;28;20237;-53
2023/05/21 08:30:23;;;;;;;12.52;10.98;;;;;;;;;;5089936;27;20337;-54
2023/05/21 08:32:51;;;;;;;13.50;12.00;;;;;;;;;;5074539;28;20332;-54
2023/05/21 08:35:17;;;;;;;13.77;12.48;;;;;;;;;;5077541;28;20410;-53
2023/05/21 08:37:44;;;;;;;13.65;12.50;;;;;;;;;;5079069;28;20233;-52
2023/05/21 08:40:12;;;;;;;13.02;11.68;;;;;;;;;;5071713;28;20598;-52
2023/05/21 08:42:40;;;;;;;12.50;11.38;;;;;;;;;;5064084;28;20549;-53
2023/05/21 08:45:07;;;;;;;12.43;11.20;;;;;;;;;;5073444;28;20233;-52
2023/05/21 08:47:35;;;;;;;12.35;11.23;;;;;;;;;;5077719;28;20235;-53
2023/05/21 08:50:04;;;;;;;13.23;11.93;;;;;;;;;;5068418;28;20756;-51
2023/05/21 08:52:31;;;;;;;11.68;10.48;;;;;;;;;;5073825;28;21766;-52
2023/05/21 08:54:57;;;;;;;11.88;10.55;;;;;;;;;;5083955;28;20230;-53
2023/05/21 08:57:25;;;;;;;11.90;10.35;;;;;;;;;;5083560;28;20223;-53
2023/05/21 08:59:52;;;;;;;12.68;11.50;;;;;;;;;;5083659;28;20933;-51
2023/05/21 09:02:18;;;;;;;12.65;11.02;;;;;;;;;;5074847;28;20258;-51
2023/05/21 09:04:48;;;;;;;11.90;10.70;;;;;;;;;;5076754;28;20310;-53
2023/05/21 09:07:16;;;;;;;11.18;10.13;;;;;;;;;;5073878;28;20310;-53
2023/05/21 09:09:47;;;;;;;16.02;10.57;;;;;;;;;;5072914;28;20237;-54
2023/05/21 09:12:13;;;;;;;11.30;10.40;;;;;;;;;;5080443;28;21113;-52
2023/05/21 09:14:40;;;;;;;11.98;10.95;;;;;;;;;;5075363;28;20235;-52
2023/05/21 09:17:06;;;;;;;12.63;11.07;;;;;;;;;;5076634;28;20236;-52
2023/05/21 09:19:33;;;;;;;11.68;10.60;;;;;;;;;;5080920;28;20233;-52
2023/05/21 09:22:01;;;;;;;11.50;10.48;;;;;;;;;;5077714;28;20242;-52
2023/05/21 09:24:30;;;;;;;15.55;10.38;;;;;;;;;;5072298;28;20317;-52
2023/05/21 09:26:57;;;;;;;12.18;11.07;;;;;;;;;;5070561;28;20322;-52
2023/05/21 09:29:24;;;;;;;11.70;10.10;;;;;;;;;;5083500;28;20237;-52
2023/05/21 09:31:53;;;;;;;10.82;9.05;;;;;;;;;;5072581;28;20666;-53
2023/05/21 09:34:19;;;;;;;11.30;9.85;;;;;;;;;;5077569;28;20611;-51
2023/05/21 09:36:47;;;;;;;15.50;10.20;;;;;;;;;;5070029;28;20223;-52
2023/05/21 09:39:27;;;;;;;10.60;9.50;;;;;;;;;;5074605;28;20245;-52
2023/05/21 09:41:56;;;;;;;11.90;10.80;;;;;;;;;;5074757;28;20334;-54
2023/05/21 09:44:23;;;;;;;10.73;9.55;;;;;;;;;;5072339;28;20233;-52
2023/05/21 09:46:49;;;;;;;14.45;10.70;;;;;;;;;;5081169;28;20909;-52
2023/05/21 09:49:22;;;;;;;9.80;9.00;;;;;;;;;;5079235;28;20317;-53
2023/05/21 09:51:48;;;;;;;10.35;9.07;;;;;;;;;;5076040;28;20236;-52
2023/05/21 09:54:15;;;;;;;9.73;8.93;;;;;;;;;;5076459;28;20226;-52
2023/05/21 09:56:41;;;;;;;11.55;8.77;;;;;;;;;;5083248;28;20357;-53
2023/05/21 09:59:09;;;;;;;11.57;9.65;;;;;;;;;;5079907;28;20301;-52
2023/05/21 10:01:37;;;;;;;10.10;9.15;;;;;;;;;;5077417;28;20237;-53
2023/05/21 10:04:06;;;;;;;9.55;8.60;;;;;;;;;;5085371;28;20249;-55
2023/05/21 10:06:34;;;;;;;9.23;8.30;;;;;;;;;;5088572;28;20305;-53
2023/05/21 10:09:02;;;;;;;9.73;7.95;;;;;;;;;;5080816;28;20230;-54
2023/05/21 10:11:30;;;;;;;12.32;9.75;;;;;;;;;;5073965;28;20231;-53
2023/05/21 10:13:58;;;;;;;9.05;8.15;;;;;;;;;;5076558;28;20313;-53
2023/05/21 10:16:26;;;;;;;9.65;8.75;;;;;;;;;;5074273;28;20305;-53
2023/05/21 10:18:54;;;;;;;12.30;7.78;;;;;;;;;;5072773;28;20226;-53
2023/05/21 10:21:23;;;;;;;11.52;8.13;;;;;;;;;;5075213;28;20305;-52
2023/05/21 10:23:50;;;;;;;8.98;7.68;;;;;;;;;;5074887;28;20230;-54
2023/05/21 10:26:18;;;;;;;11.35;9.10;;;;;;;;;;5076204;28;20223;-53
2023/05/21 10:28:45;;;;;;;8.88;7.97;;;;;;;;;;5078522;28;20231;-52
2023/05/21 10:31:11;;;;;;;8.55;7.85;;;;;;;;;;5083017;28;20238;-52
2023/05/21 10:33:41;;;;;;;8.90;8.07;;;;;;;;;;5076194;28;20237;-52
2023/05/21 10:36:07;;;;;;;10.70;8.98;;;;;;;;;;5081271;28;20310;-53
2023/05/21 10:38:33;;;;;;;8.23;7.43;;;;;;;;;;5075061;28;20322;-53
2023/05/21 10:41:01;;;;;;;8.50;7.68;;;;;;;;;;5079055;28;20222;-53
2023/05/21 10:43:51;;;;;;;9.13;8.07;;;;;;;;;;5081811;28;20599;-52
2023/05/21 10:46:45;;;;;;;8.77;7.97;;;;;;;;;;5078665;28;20218;-53
2023/05/21 10:49:21;;;;;;;9.57;8.70;;;;;;;;;;5084554;28;20234;-52
2023/05/21 10:51:51;;;;;;;8.25;7.45;;;;;;;;;;5088980;28;20238;-54
2023/05/21 10:54:36;;;;;;;7.88;7.18;;;;;;;;;;5079254;28;20250;-52
2023/05/21 10:57:09;;;;;;;8.82;7.93;;;;;;;;;;5074768;28;20307;-52
2023/05/21 10:59:39;;;;;;;8.70;7.95;;;;;;;;;;5079225;28;20230;-52
2023/05/21 11:02:06;;;;;;;83.57;76.30;;;;;;;;;;5080864;28;20314;-59
2023/05/21 11:04:38;;;;;;;23.40;21.15;;;;;;;;;;5078539;28;20663;-52
2023/05/21 11:07:05;;;;;;;9.02;8.23;;;;;;;;;;5086747;28;20230;-52
2023/05/21 11:09:31;;;;;;;8.68;7.80;;;;;;;;;;5090410;28;20226;-52
2023/05/21 11:12:03;;;;;;;11.68;7.63;;;;;;;;;;5090573;28;20617;-52
2023/05/21 11:14:31;;;;;;;8.55;7.10;;;;;;;;;;5089291;28;20242;-53
2023/05/21 11:16:58;;;;;;;10.65;6.82;;;;;;;;;;5092270;28;20816;-53
2023/05/21 11:19:34;;;;;;;7.82;7.13;;;;;;;;;;5093803;28;20234;-53
2023/05/21 11:22:00;;;;;;;7.43;6.57;;;;;;;;;;5085691;28;20681;-53
2023/05/21 11:24:27;;;;;;;8.00;6.95;;;;;;;;;;5087816;28;20230;-53
2023/05/21 11:27:04;;;;;;;9.88;7.28;;;;;;;;;;5087800;28;20230;-53
2023/05/21 11:29:40;;;;;;;7.88;7.18;;;;;;;;;;5088847;28;20234;-52
2023/05/21 11:32:08;;;;;;;7.18;6.40;;;;;;;;;;5086889;28;20233;-52
2023/05/21 11:34:39;;;;;;;7.53;6.93;;;;;;;;;;5088309;28;20655;-52
2023/05/21 11:37:26;;;;;;;8.77;7.13;;;;;;;;;;5086832;28;20230;-53
2023/05/21 11:39:53;;;;;;;7.72;6.95;;;;;;;;;;5085154;28;20238;-52
2023/05/21 11:42:27;;;;;;;8.20;7.50;;;;;;;;;;5084847;28;20235;-54
2023/05/21 11:44:55;;;;;;;8.20;6.72;;;;;;;;;;5085088;28;20226;-53
2023/05/21 11:47:22;;;;;;;7.10;6.15;;;;;;;;;;5080636;28;20226;-53
2023/05/21 11:49:50;;;;;;;8.15;6.38;;;;;;;;;;5077446;28;20291;-53
2023/05/21 11:52:18;;;;;;;7.07;6.38;;;;;;;;;;5081875;28;20239;-53
2023/05/21 11:54:47;;;;;;;7.40;6.75;;;;;;;;;;5084255;28;20226;-53
2023/05/21 11:57:15;;;;;;;7.60;6.90;;;;;;;;;;5081635;28;20277;-54
2023/05/21 11:59:42;;;;;;;7.07;6.47;;;;;;;;;;5083289;28;20424;-52
2023/05/21 12:02:08;;;;;;;7.70;6.85;;;;;;;;;;5078327;28;20315;-53
2023/05/21 12:04:36;;;;;;;6.68;6.18;;;;;;;;;;5087588;28;20309;-53
2023/05/21 12:07:06;;;;;;;6.90;6.40;;;;;;;;;;5086401;28;21536;-53
2023/05/21 12:09:38;;;;;;;6.63;6.07;;;;;;;;;;5086597;28;20313;-57
2023/05/21 12:12:05;;;;;;;7.43;5.88;;;;;;;;;;5088020;28;20239;-52
2023/05/21 12:14:31;;;;;;;6.93;6.15;;;;;;;;;;5084388;28;20243;-53
2023/05/21 12:16:58;;;;;;;6.70;6.10;;;;;;;;;;5083880;28;20226;-53
2023/05/21 12:19:24;;;;;;;7.40;6.68;;;;;;;;;;5084997;28;20732;-53
2023/05/21 12:21:51;;;;;;;9.10;6.25;;;;;;;;;;5084772;28;20227;-53
2023/05/21 12:24:18;;;;;;;6.30;5.80;;;;;;;;;;5079082;28;20377;-53
2023/05/21 12:26:45;;;;;;;7.40;6.50;;;;;;;;;;5084225;28;20236;-51
2023/05/21 12:29:11;;;;;;;6.90;6.30;;;;;;;;;;5082673;28;20230;-52
2023/05/21 12:31:46;;;;;;;6.80;6.25;;;;;;;;;;5080771;28;20273;-52
2023/05/21 12:34:14;;;;;;;6.68;6.07;;;;;;;;;;5076196;28;20265;-54
2023/05/21 12:36:45;;;;;;;7.45;6.78;;;;;;;;;;5082449;28;20234;-53
2023/05/21 12:39:11;;;;;;;7.10;6.40;;;;;;;;;;5083084;28;20700;-54
2023/05/21 12:41:39;;;;;;;7.38;6.20;;;;;;;;;;5082102;28;20703;-53
2023/05/21 12:44:07;;;;;;;7.18;6.47;;;;;;;;;;5080930;28;20313;-53
2023/05/21 12:46:33;;;;;;;6.82;6.13;;;;;;;;;;5083394;28;20226;-53
2023/05/21 12:49:00;;;;;;;6.68;6.07;;;;;;;;;;5079473;28;20234;-53
2023/05/21 12:51:37;;;;;;;8.75;6.63;;;;;;;;;;5080635;28;20752;-53
2023/05/21 12:54:03;;;;;;;6.68;6.07;;;;;;;;;;5079164;28;20244;-52
2023/05/21 12:56:43;;;;;;;6.88;6.25;;;;;;;;;;5080963;28;20268;-52
2023/05/21 12:59:14;;;;;;;6.72;6.13;;;;;;;;;;5077531;28;20230;-54
2023/05/21 13:01:41;;;;;;;6.65;6.00;;;;;;;;;;5074580;28;20568;-54
2023/05/21 13:04:07;;;;;;;7.93;6.57;;;;;;;;;;5077297;28;20357;-53
2023/05/21 13:06:41;;;;;;;7.00;6.35;;;;;;;;;;5077378;28;20704;-53
2023/05/21 13:09:08;;;;;;;7.70;7.05;;;;;;;;;;5080669;28;20324;-54
2023/05/21 13:11:34;;;;;;;7.45;6.80;;;;;;;;;;5080887;28;20309;-51
2023/05/21 13:14:01;;;;;;;6.70;6.13;;;;;;;;;;5082054;28;20226;-53
2023/05/21 13:16:28;;;;;;;7.95;7.15;;;;;;;;;;5083967;28;20712;-52
2023/05/21 13:18:55;;;;;;;7.53;6.55;;;;;;;;;;5079932;28;20306;-52
2023/05/21 13:21:22;;;;;;;11.30;7.70;;;;;;;;;;5075939;28;20319;-53
2023/05/21 13:23:49;;;;;;;10.00;7.53;;;;;;;;;;5076296;28;20318;-53
2023/05/21 13:26:15;;;;;;;7.22;6.57;;;;;;;;;;5075536;28;20652;-53
2023/05/21 13:28:42;;;;;;;10.85;7.38;;;;;;;;;;5079667;28;20238;-54
2023/05/21 13:31:10;;;;;;;7.43;6.72;;;;;;;;;;5077995;28;20689;-53
2023/05/21 13:33:39;;;;;;;8.18;7.38;;;;;;;;;;5081438;28;20233;-52
2023/05/21 13:36:05;;;;;;;7.85;7.03;;;;;;;;;;5082834;28;20803;-53
2023/05/21 13:38:32;;;;;;;7.25;6.65;;;;;;;;;;5081301;28;20234;-52
2023/05/21 13:40:59;;;;;;;8.52;6.38;;;;;;;;;;5079288;28;20323;-52
2023/05/21 13:43:25;;;;;;;7.93;7.15;;;;;;;;;;5081834;28;20236;-53
2023/05/21 13:45:52;;;;;;;6.72;6.18;;;;;;;;;;5082077;28;20250;-52
2023/05/21 13:48:19;;;;;;;7.22;6.53;;;;;;;;;;5077654;28;20226;-53
2023/05/21 13:50:47;;;;;;;7.65;6.93;;;;;;;;;;5081862;28;20264;-53
2023/05/21 13:53:13;;;;;;;6.43;5.85;;;;;;;;;;5080326;28;20237;-53
2023/05/21 13:55:39;;;;;;;7.28;6.68;;;;;;;;;;5077652;28;20230;-53
2023/05/21 13:58:06;;;;;;;7.55;6.90;;;;;;;;;;5077299;28;20230;-53
2023/05/21 14:00:32;;;;;;;7.72;7.07;;;;;;;;;;5078438;28;20231;-53
2023/05/21 14:02:59;;;;;;;7.80;7.05;;;;;;;;;;5076829;28;20238;-53
2023/05/21 14:05:25;;;;;;;7.68;6.97;;;;;;;;;;5077747;28;20314;-53
2023/05/21 14:07:53;;;;;;;9.23;7.97;;;;;;;;;;5080497;28;20238;-53
2023/05/21 14:10:20;;;;;;;7.97;7.18;;;;;;;;;;5077535;28;20720;-53
2023/05/21 14:12:46;;;;;;;12.48;7.38;;;;;;;;;;5082489;28;20226;-53
2023/05/21 14:15:12;;;;;;;7.53;6.93;;;;;;;;;;5079964;28;20428;-52
2023/05/21 14:17:41;;;;;;;8.93;7.57;;;;;;;;;;5083617;28;20226;-53
2023/05/21 14:20:08;;;;;;;8.35;7.45;;;;;;;;;;5082941;28;20254;-52
2023/05/21 14:22:34;;;;;;;8.02;7.32;;;;;;;;;;5084170;28;20230;-54
2023/05/21 14:25:02;;;;;;;7.45;6.75;;;;;;;;;;5085188;28;20301;-53